createdAt,value
2023-04-03T00:01:02.510Z,1011.44
2023-04-03T00:06:06.681Z,1011.35
2023-04-03T00:11:10.855Z,1011.31
2023-04-03T00:16:15.017Z,1011.31
2023-04-03T00:21:19.143Z,1011.29
2023-04-03T00:26:23.409Z,1011.34
2023-04-03T00:31:27.582Z,1011.31
2023-04-03T00:36:31.888Z,1011.17
2023-04-03T00:41:35.846Z,1011.05
2023-04-03T00:51:44.151Z,1011.06
2023-04-03T00:56:48.367Z,1011.05
2023-04-03T01:01:52.538Z,1010.99
2023-04-03T01:06:56.681Z,1010.89
2023-04-03T01:12:00.845Z,1010.81
2023-04-03T01:17:03.105Z,1010.78
2023-04-03T01:22:07.266Z,1010.76
2023-04-03T01:27:09.563Z,1010.81
2023-04-03T01:32:13.723Z,1010.80
2023-04-03T01:37:17.906Z,1010.72
2023-04-03T01:42:22.049Z,1010.74
2023-04-03T01:47:26.268Z,1010.75
2023-04-03T01:52:30.403Z,1010.77
2023-04-03T01:57:34.580Z,1010.71
2023-04-03T02:02:38.759Z,1010.75
2023-04-03T02:07:42.938Z,1010.72
2023-04-03T02:12:47.045Z,1010.79
2023-04-03T02:17:51.286Z,1010.78
2023-04-03T02:22:55.372Z,1010.92
2023-04-03T02:27:59.545Z,1010.79
2023-04-03T02:33:03.792Z,1010.75
2023-04-03T02:38:07.913Z,1010.73
2023-04-03T02:43:12.060Z,1010.61
2023-04-03T02:48:16.218Z,1010.59
2023-04-03T02:53:20.419Z,1010.62
2023-04-03T02:58:24.563Z,1010.63
2023-04-03T03:03:28.767Z,1010.71
2023-04-03T03:08:32.916Z,1010.70
2023-04-03T03:13:35.161Z,1010.57
2023-04-03T03:18:39.307Z,1010.53
2023-04-03T03:23:43.507Z,1010.58
2023-04-03T03:28:47.688Z,1010.49
2023-04-03T03:33:49.907Z,1010.37
2023-04-03T03:38:54.094Z,1010.42
2023-04-03T03:43:58.287Z,1010.49
2023-04-03T03:49:02.431Z,1010.49
2023-04-03T03:54:06.579Z,1010.47
2023-04-03T03:59:10.790Z,1010.62
2023-04-03T04:04:15.073Z,1010.67
2023-04-03T04:09:19.099Z,1010.72
2023-04-03T04:14:23.275Z,1010.76
2023-04-03T04:19:27.415Z,1010.86
2023-04-03T04:24:31.636Z,1010.82
2023-04-03T04:29:35.785Z,1010.97
2023-04-03T04:34:39.999Z,1011.06
2023-04-03T04:39:44.145Z,1011.04
2023-04-03T04:44:48.247Z,1011.07
2023-04-03T04:49:52.405Z,1011.20
2023-04-03T04:54:56.595Z,1011.34
2023-04-03T05:00:00.788Z,1011.32
2023-04-03T05:05:05.257Z,1011.41
2023-04-03T05:10:09.173Z,1011.48
2023-04-03T05:15:13.301Z,1011.61
2023-04-03T05:20:15.563Z,1011.64
2023-04-03T05:25:19.715Z,1011.64
2023-04-03T05:30:22.016Z,1011.81
2023-04-03T05:35:26.197Z,1011.92
2023-04-03T05:40:30.322Z,1011.88
2023-04-03T05:45:34.527Z,1011.98
2023-04-03T05:55:42.851Z,1012.12
2023-04-03T06:00:46.997Z,1011.98
2023-04-03T06:05:51.344Z,1012.01
2023-04-03T06:10:55.315Z,1012.12
2023-04-03T06:15:59.511Z,1012.13
2023-04-03T06:21:03.642Z,1012.17
2023-04-03T06:26:07.809Z,1012.23
2023-04-03T06:31:12.069Z,1012.30
2023-04-03T06:36:16.167Z,1012.29
2023-04-03T06:41:20.325Z,1012.23
2023-04-03T06:46:24.633Z,1012.17
2023-04-03T06:51:28.701Z,1012.19
2023-04-03T06:56:32.829Z,1012.06
2023-04-03T07:01:37.034Z,1012.02
2023-04-03T07:06:41.179Z,1011.91
2023-04-03T07:11:45.320Z,1011.82
2023-04-03T07:16:49.490Z,1011.65
2023-04-03T07:21:51.769Z,1011.48
2023-04-03T07:26:55.944Z,1011.43
2023-04-03T07:31:58.272Z,1011.25
2023-04-03T07:37:02.413Z,1011.16
2023-04-03T07:42:06.530Z,1010.95
2023-04-03T07:47:10.688Z,1010.82
2023-04-03T07:52:14.915Z,1010.79
2023-04-03T07:57:19.040Z,1010.63
2023-04-03T08:02:23.217Z,1010.52
2023-04-03T08:07:27.361Z,1010.51
2023-04-03T08:12:31.518Z,1010.48
2023-04-03T08:17:35.699Z,1010.33
2023-04-03T08:22:39.828Z,1010.06
2023-04-03T08:27:44.032Z,1009.70
2023-04-03T08:32:48.259Z,1009.52
2023-04-03T08:37:52.345Z,1009.36
2023-04-03T08:42:56.515Z,1009.36
2023-04-03T08:48:00.686Z,1009.64
2023-04-03T08:53:04.828Z,1009.75
2023-04-03T09:03:13.250Z,1009.99
2023-04-03T09:08:17.654Z,1010.01
2023-04-03T09:13:21.512Z,1010.08
2023-04-03T09:18:25.654Z,1010.22
2023-04-03T09:23:27.948Z,1010.44
2023-04-03T09:28:38.871Z,1011.42
2023-04-03T09:33:36.260Z,1011.83
2023-04-03T09:38:38.509Z,1011.53
2023-04-03T09:43:42.704Z,1012.03
2023-04-03T09:48:48.170Z,1012.09
2023-04-03T09:53:51.018Z,1012.14
2023-04-03T09:58:55.148Z,1012.48
2023-04-03T10:03:59.358Z,1012.16
2023-04-03T10:09:03.498Z,1012.37
2023-04-03T10:14:09.497Z,1012.71
2023-04-03T10:24:16.031Z,1013.10
2023-04-03T10:29:20.166Z,1013.02
2023-04-03T10:34:24.323Z,1012.86
2023-04-03T10:39:28.443Z,1013.07
2023-04-03T10:44:32.629Z,1013.13
2023-04-03T10:49:37.988Z,1014.05
2023-04-03T10:54:40.946Z,1015.08
2023-04-03T10:59:45.132Z,1016.90
2023-04-03T11:04:49.305Z,1018.26
2023-04-03T11:09:53.437Z,1020.09
2023-04-03T11:14:57.603Z,1021.32
2023-04-03T11:20:01.792Z,1021.31
2023-04-03T11:25:05.946Z,1021.28
2023-04-03T11:30:08.224Z,1021.39
2023-04-03T11:35:12.504Z,1021.24
2023-04-03T11:40:16.534Z,1021.12
2023-04-03T11:45:18.818Z,1021.21
2023-04-03T11:50:23.252Z,1021.01
2023-04-03T11:55:27.130Z,1021.08
2023-04-03T12:00:31.293Z,1021.20
2023-04-03T12:05:35.753Z,1021.19
2023-04-03T12:10:39.738Z,1021.18
2023-04-03T12:15:43.765Z,1021.20
2023-04-03T12:20:47.954Z,1021.08
2023-04-03T12:25:52.078Z,1020.98
2023-04-03T12:30:56.292Z,1020.99
2023-04-03T12:36:01.983Z,1020.90
2023-04-03T12:41:04.600Z,1020.92
2023-04-03T12:46:08.866Z,1020.84
2023-04-03T12:51:12.891Z,1020.71
2023-04-03T12:56:17.135Z,1020.76
2023-04-03T13:01:21.265Z,1020.71
2023-04-03T13:06:25.402Z,1020.60
2023-04-03T13:11:29.572Z,1020.63
2023-04-03T13:16:33.768Z,1020.63
2023-04-03T13:21:37.869Z,1020.57
2023-04-03T13:26:42.037Z,1020.64
2023-04-03T13:31:44.378Z,1020.47
2023-04-03T13:36:48.484Z,1020.53
2023-04-03T13:41:52.627Z,1020.57
2023-04-03T13:46:54.930Z,1020.46
2023-04-03T13:52:07.138Z,1020.29
2023-04-03T13:57:03.255Z,1020.30
2023-04-03T14:02:07.444Z,1020.31
2023-04-03T14:07:11.585Z,1020.24
2023-04-03T14:12:24.329Z,1020.32
2023-04-03T14:17:24.620Z,1020.20
2023-04-03T14:22:22.155Z,1020.12
2023-04-03T14:27:26.326Z,1020.15
2023-04-03T14:32:30.486Z,1020.17
2023-04-03T14:37:34.614Z,1020.07
2023-04-03T14:42:38.826Z,1020.05
2023-04-03T14:47:43.017Z,1019.99
2023-04-03T14:52:47.162Z,1019.99
2023-04-03T14:57:51.405Z,1019.92
2023-04-03T15:02:55.573Z,1019.90
2023-04-03T15:07:59.587Z,1019.93
2023-04-03T15:13:03.804Z,1019.95
2023-04-03T15:18:07.968Z,1019.89
2023-04-03T15:23:12.099Z,1019.86
2023-04-03T15:28:16.259Z,1019.84
2023-04-03T15:33:18.545Z,1019.91
2023-04-03T15:38:22.692Z,1019.80
2023-04-03T15:43:24.992Z,1019.84
2023-04-03T15:48:29.159Z,1019.87
2023-04-03T15:53:33.301Z,1019.86
2023-04-03T15:58:37.478Z,1019.84
2023-04-03T16:03:41.666Z,1019.99
2023-04-03T16:08:45.760Z,1019.99
2023-04-03T16:13:49.926Z,1020.07
2023-04-03T16:18:54.075Z,1020.02
2023-04-03T16:23:58.263Z,1020.06
2023-04-03T16:29:02.424Z,1020.07
2023-04-03T16:34:06.573Z,1019.99
2023-04-03T16:39:10.744Z,1019.98
2023-04-03T16:44:14.914Z,1019.96
2023-04-03T16:49:19.083Z,1019.97
2023-04-03T16:54:23.267Z,1019.99
2023-04-03T16:59:27.421Z,1020.12
2023-04-03T17:04:31.589Z,1020.13
2023-04-03T17:09:35.676Z,1020.24
2023-04-03T17:14:39.856Z,1020.16
2023-04-03T17:19:44.008Z,1020.21
2023-04-03T17:24:48.159Z,1020.18
2023-04-03T17:29:50.445Z,1020.19
2023-04-03T17:34:54.627Z,1020.10
2023-04-03T17:39:56.904Z,1020.03
2023-04-03T17:45:01.128Z,1020.10
2023-04-03T17:50:05.199Z,1020.03
2023-04-03T17:55:09.368Z,1020.03
2023-04-03T18:00:13.531Z,1019.95
2023-04-03T18:05:17.717Z,1019.98
2023-04-03T18:10:21.871Z,1020.08
2023-04-03T18:15:26.043Z,1020.03
2023-04-03T18:20:30.227Z,1020.00
2023-04-03T18:25:34.350Z,1019.97
2023-04-03T18:30:38.734Z,1020.01
2023-04-03T18:35:42.848Z,1020.03
2023-04-03T18:40:46.873Z,1020.02
2023-04-03T18:45:50.994Z,1020.08
2023-04-03T18:50:55.243Z,1019.97
2023-04-03T18:55:59.347Z,1019.99
2023-04-03T19:01:03.499Z,1019.96
2023-04-03T19:06:07.935Z,1020.05
2023-04-03T19:11:11.844Z,1019.95
2023-04-03T19:16:16.233Z,1019.81
2023-04-03T19:21:20.177Z,1019.52
2023-04-03T19:26:22.433Z,1018.78
2023-04-03T19:31:26.552Z,1017.63
2023-04-03T19:36:28.884Z,1016.79
2023-04-03T19:41:33.007Z,1016.34
2023-04-03T19:46:37.291Z,1015.24
2023-04-03T19:51:41.359Z,1014.93
2023-04-03T19:56:45.515Z,1014.43
2023-04-03T20:01:49.749Z,1014.22
2023-04-03T20:06:53.853Z,1014.07
2023-04-03T20:11:58.081Z,1014.35
2023-04-03T20:17:02.238Z,1014.40
2023-04-03T20:22:06.394Z,1014.28
2023-04-03T20:27:10.507Z,1014.52
2023-04-03T20:32:14.657Z,1014.40
2023-04-03T20:37:18.872Z,1014.26
2023-04-03T20:42:23.006Z,1014.26
2023-04-03T20:47:27.243Z,1013.95
2023-04-03T20:52:31.319Z,1013.65
2023-04-03T20:57:35.521Z,1014.10
2023-04-03T21:02:39.644Z,1014.28
2023-04-03T21:07:43.869Z,1014.39
2023-04-03T21:12:47.999Z,1014.52
2023-04-03T21:17:52.201Z,1014.48
2023-04-03T21:22:54.460Z,1014.49
2023-04-03T21:27:58.590Z,1014.47
2023-04-03T21:33:00.928Z,1014.31
2023-04-03T21:38:05.038Z,1014.33
2023-04-03T21:43:09.224Z,1014.17
2023-04-03T21:48:13.433Z,1013.96
2023-04-03T21:58:21.683Z,1012.81
2023-04-03T22:03:25.869Z,1011.81
2023-04-03T22:08:30.013Z,1009.60
2023-04-03T22:13:34.209Z,1008.70
2023-04-03T22:18:38.339Z,1008.10
2023-04-03T22:23:42.523Z,1007.68
2023-04-03T22:28:46.694Z,1007.37
2023-04-03T22:33:50.873Z,1007.16
2023-04-03T22:38:54.995Z,1006.91
2023-04-03T22:43:59.161Z,1006.79
2023-04-03T22:49:03.366Z,1006.77
2023-04-03T22:54:07.503Z,1006.71
2023-04-03T22:59:11.718Z,1006.63
2023-04-03T23:04:15.914Z,1006.59
2023-04-03T23:09:20.037Z,1006.75
2023-04-03T23:14:24.172Z,1006.81
2023-04-03T23:19:28.354Z,1006.85
2023-04-03T23:24:30.608Z,1006.99
2023-04-03T23:29:34.774Z,1007.08
2023-04-03T23:34:38.958Z,1007.18
2023-04-03T23:39:43.087Z,1007.30
2023-04-03T23:44:47.265Z,1007.44
2023-04-03T23:49:51.463Z,1007.63
2023-04-03T23:54:55.632Z,1007.75
2023-04-03T23:59:59.776Z,1007.82
